sensor_id;sensor_type;location;lat;lon;timestamp;noise_LAeq;noise_LA_min;noise_LA_max;noise_LA01;noise_LA95
68945;Laerm;55984;48.790;8.990;2023-07-30T00:00:29;51.51;48.55;62.46;;
68945;Laerm;55984;48.790;8.990;2023-07-30T00:02:55;51.16;48.71;63.54;;
68945;Laerm;55984;48.790;8.990;2023-07-30T00:05:21;49.82;48.42;52.93;;
68945;Laerm;55984;48.790;8.990;2023-07-30T00:07:47;49.82;48.36;53.59;;
68945;Laerm;55984;48.790;8.990;2023-07-30T00:10:13;49.92;48.51;51.85;;
68945;Laerm;55984;48.790;8.990;2023-07-30T00:12:39;49.64;48.54;51.79;;
68945;Laerm;55984;48.790;8.990;2023-07-30T00:15:07;49.54;48.31;51.42;;
68945;Laerm;55984;48.790;8.990;2023-07-30T00:17:33;49.51;48.23;51.79;;
68945;Laerm;55984;48.790;8.990;2023-07-30T00:19:59;49.46;48.29;51.56;;
68945;Laerm;55984;48.790;8.990;2023-07-30T00:22:25;49.35;48.21;51.59;;
68945;Laerm;55984;48.790;8.990;2023-07-30T00:24:50;49.42;48.35;51.78;;
68945;Laerm;55984;48.790;8.990;2023-07-30T00:27:16;49.53;48.37;52.38;;
68945;Laerm;55984;48.790;8.990;2023-07-30T00:29:42;49.58;48.43;52.04;;
68945;Laerm;55984;48.790;8.990;2023-07-30T00:32:09;50.09;48.07;60.39;;
68945;Laerm;55984;48.790;8.990;2023-07-30T00:34:34;50.17;48.65;52.96;;
68945;Laerm;55984;48.790;8.990;2023-07-30T00:37:00;50.91;48.45;57.12;;
68945;Laerm;55984;48.790;8.990;2023-07-30T00:39:26;50.95;48.45;57.10;;
68945;Laerm;55984;48.790;8.990;2023-07-30T00:41:52;49.76;47.79;57.12;;
68945;Laerm;55984;48.790;8.990;2023-07-30T00:44:18;49.10;47.98;50.82;;
68945;Laerm;55984;48.790;8.990;2023-07-30T00:46:44;49.02;47.88;51.15;;
68945;Laerm;55984;48.790;8.990;2023-07-30T00:49:10;49.19;48.01;53.68;;
68945;Laerm;55984;48.790;8.990;2023-07-30T00:51:37;49.13;48.18;50.18;;
68945;Laerm;55984;48.790;8.990;2023-07-30T00:54:03;49.49;47.97;50.73;;
68945;Laerm;55984;48.790;8.990;2023-07-30T00:56:30;49.21;47.97;50.61;;
68945;Laerm;55984;48.790;8.990;2023-07-30T00:58:56;49.11;48.07;50.27;;
68945;Laerm;55984;48.790;8.990;2023-07-30T01:01:22;49.03;48.09;50.08;;
68945;Laerm;55984;48.790;8.990;2023-07-30T01:03:48;49.04;47.97;49.82;;
68945;Laerm;55984;48.790;8.990;2023-07-30T01:06:15;49.08;47.91;49.99;;
68945;Laerm;55984;48.790;8.990;2023-07-30T01:08:41;49.11;48.06;50.02;;
68945;Laerm;55984;48.790;8.990;2023-07-30T01:11:08;49.07;48.10;50.15;;
68945;Laerm;55984;48.790;8.990;2023-07-30T01:13:35;49.08;48.11;50.27;;
68945;Laerm;55984;48.790;8.990;2023-07-30T01:16:01;50.09;48.35;59.59;;
68945;Laerm;55984;48.790;8.990;2023-07-30T01:18:28;51.83;48.52;63.89;;
68945;Laerm;55984;48.790;8.990;2023-07-30T01:20:58;55.65;48.36;64.42;;
68945;Laerm;55984;48.790;8.990;2023-07-30T01:23:25;51.68;48.69;59.86;;
68945;Laerm;55984;48.790;8.990;2023-07-30T01:26:12;50.39;48.48;58.75;;
68945;Laerm;55984;48.790;8.990;2023-07-30T01:28:54;50.36;48.33;56.86;;
68945;Laerm;55984;48.790;8.990;2023-07-30T01:31:24;49.77;48.36;57.49;;
68945;Laerm;55984;48.790;8.990;2023-07-30T01:33:52;49.17;48.16;51.18;;
68945;Laerm;55984;48.790;8.990;2023-07-30T01:36:20;49.92;48.10;59.69;;
68945;Laerm;55984;48.790;8.990;2023-07-30T01:38:47;51.03;48.18;56.83;;
68945;Laerm;55984;48.790;8.990;2023-07-30T01:41:14;51.76;48.29;58.27;;
68945;Laerm;55984;48.790;8.990;2023-07-30T01:43:40;50.47;48.04;57.11;;
68945;Laerm;55984;48.790;8.990;2023-07-30T01:46:05;49.97;48.56;54.31;;
68945;Laerm;55984;48.790;8.990;2023-07-30T01:48:31;52.09;48.73;60.44;;
68945;Laerm;55984;48.790;8.990;2023-07-30T01:50:57;52.03;48.97;59.36;;
68945;Laerm;55984;48.790;8.990;2023-07-30T01:53:23;50.76;48.66;59.15;;
68945;Laerm;55984;48.790;8.990;2023-07-30T01:55:49;51.84;49.41;54.12;;
68945;Laerm;55984;48.790;8.990;2023-07-30T01:58:17;50.58;48.78;52.82;;
68945;Laerm;55984;48.790;8.990;2023-07-30T02:00:44;49.94;48.81;52.09;;
68945;Laerm;55984;48.790;8.990;2023-07-30T02:03:12;50.46;48.78;54.06;;
68945;Laerm;55984;48.790;8.990;2023-07-30T02:05:37;50.74;49.07;52.78;;
68945;Laerm;55984;48.790;8.990;2023-07-30T02:08:03;49.69;48.39;51.27;;
68945;Laerm;55984;48.790;8.990;2023-07-30T02:10:29;49.66;48.63;50.71;;
68945;Laerm;55984;48.790;8.990;2023-07-30T02:12:55;49.74;48.61;50.90;;
68945;Laerm;55984;48.790;8.990;2023-07-30T02:15:21;49.73;48.62;50.88;;
68945;Laerm;55984;48.790;8.990;2023-07-30T02:17:47;49.75;48.67;51.57;;
68945;Laerm;55984;48.790;8.990;2023-07-30T02:20:13;49.84;48.47;52.92;;
68945;Laerm;55984;48.790;8.990;2023-07-30T02:22:39;50.51;48.57;52.90;;
68945;Laerm;55984;48.790;8.990;2023-07-30T02:25:05;51.01;48.59;58.47;;
68945;Laerm;55984;48.790;8.990;2023-07-30T02:27:31;49.67;48.33;55.56;;
68945;Laerm;55984;48.790;8.990;2023-07-30T02:29:57;49.38;48.05;52.83;;
68945;Laerm;55984;48.790;8.990;2023-07-30T02:32:23;49.49;48.26;52.00;;
68945;Laerm;55984;48.790;8.990;2023-07-30T02:34:49;49.52;48.21;52.47;;
68945;Laerm;55984;48.790;8.990;2023-07-30T02:37:15;49.81;48.58;50.86;;
68945;Laerm;55984;48.790;8.990;2023-07-30T02:39:42;50.00;48.69;51.01;;
68945;Laerm;55984;48.790;8.990;2023-07-30T02:42:08;49.97;48.58;51.16;;
68945;Laerm;55984;48.790;8.990;2023-07-30T02:44:33;49.86;48.75;50.96;;
68945;Laerm;55984;48.790;8.990;2023-07-30T02:46:59;49.80;48.65;50.89;;
68945;Laerm;55984;48.790;8.990;2023-07-30T02:49:25;49.67;48.70;50.55;;
68945;Laerm;55984;48.790;8.990;2023-07-30T02:51:51;49.61;48.27;50.58;;
68945;Laerm;55984;48.790;8.990;2023-07-30T02:54:19;49.78;48.77;51.44;;
68945;Laerm;55984;48.790;8.990;2023-07-30T02:56:48;49.74;48.57;50.77;;
68945;Laerm;55984;48.790;8.990;2023-07-30T02:59:14;49.83;48.53;51.00;;
68945;Laerm;55984;48.790;8.990;2023-07-30T03:01:40;49.73;48.49;51.10;;
68945;Laerm;55984;48.790;8.990;2023-07-30T03:04:05;49.91;48.87;54.13;;
68945;Laerm;55984;48.790;8.990;2023-07-30T03:06:31;49.73;48.37;51.86;;
68945;Laerm;55984;48.790;8.990;2023-07-30T03:08:57;49.46;48.44;51.44;;
68945;Laerm;55984;48.790;8.990;2023-07-30T03:11:23;49.48;48.46;51.09;;
68945;Laerm;55984;48.790;8.990;2023-07-30T03:13:49;49.81;48.55;51.86;;
68945;Laerm;55984;48.790;8.990;2023-07-30T03:16:15;49.88;48.67;51.29;;
68945;Laerm;55984;48.790;8.990;2023-07-30T03:18:41;49.71;48.57;50.76;;
68945;Laerm;55984;48.790;8.990;2023-07-30T03:21:07;49.75;48.42;51.19;;
68945;Laerm;55984;48.790;8.990;2023-07-30T03:23:32;49.78;48.41;52.70;;
68945;Laerm;55984;48.790;8.990;2023-07-30T03:25:59;49.84;48.64;51.22;;
68945;Laerm;55984;48.790;8.990;2023-07-30T03:28:25;49.78;48.42;51.41;;
68945;Laerm;55984;48.790;8.990;2023-07-30T03:30:51;49.77;48.52;51.34;;
68945;Laerm;55984;48.790;8.990;2023-07-30T03:33:17;49.73;48.61;51.34;;
68945;Laerm;55984;48.790;8.990;2023-07-30T03:35:44;49.84;48.63;51.11;;
68945;Laerm;55984;48.790;8.990;2023-07-30T03:38:10;49.82;48.43;55.21;;
68945;Laerm;55984;48.790;8.990;2023-07-30T03:40:36;49.76;48.62;53.58;;
68945;Laerm;55984;48.790;8.990;2023-07-30T03:43:02;49.65;48.48;51.19;;
68945;Laerm;55984;48.790;8.990;2023-07-30T03:45:28;49.72;48.38;51.41;;
68945;Laerm;55984;48.790;8.990;2023-07-30T03:47:54;49.54;48.52;51.21;;
68945;Laerm;55984;48.790;8.990;2023-07-30T03:50:19;49.49;48.44;50.86;;
68945;Laerm;55984;48.790;8.990;2023-07-30T03:52:45;49.58;48.43;52.41;;
68945;Laerm;55984;48.790;8.990;2023-07-30T03:55:12;49.40;48.11;51.06;;
68945;Laerm;55984;48.790;8.990;2023-07-30T03:57:38;49.44;48.47;53.98;;
68945;Laerm;55984;48.790;8.990;2023-07-30T04:00:04;49.24;48.24;50.39;;
68945;Laerm;55984;48.790;8.990;2023-07-30T04:02:30;49.23;48.16;53.37;;
68945;Laerm;55984;48.790;8.990;2023-07-30T04:04:56;49.40;48.05;50.77;;
68945;Laerm;55984;48.790;8.990;2023-07-30T04:07:22;49.27;48.29;51.19;;
68945;Laerm;55984;48.790;8.990;2023-07-30T04:09:48;49.14;48.21;51.20;;
68945;Laerm;55984;48.790;8.990;2023-07-30T04:12:14;48.98;47.97;49.92;;
68945;Laerm;55984;48.790;8.990;2023-07-30T04:14:40;49.06;48.02;49.93;;
68945;Laerm;55984;48.790;8.990;2023-07-30T04:17:07;49.11;48.03;49.93;;
68945;Laerm;55984;48.790;8.990;2023-07-30T04:19:32;49.41;48.13;54.80;;
68945;Laerm;55984;48.790;8.990;2023-07-30T04:21:58;49.20;48.15;50.31;;
68945;Laerm;55984;48.790;8.990;2023-07-30T04:24:24;49.20;48.20;51.01;;
68945;Laerm;55984;48.790;8.990;2023-07-30T04:26:51;49.20;48.17;50.24;;
68945;Laerm;55984;48.790;8.990;2023-07-30T04:29:17;49.32;48.25;51.66;;
68945;Laerm;55984;48.790;8.990;2023-07-30T04:31:43;49.77;48.43;53.39;;
68945;Laerm;55984;48.790;8.990;2023-07-30T04:34:09;49.62;48.23;56.42;;
68945;Laerm;55984;48.790;8.990;2023-07-30T04:36:35;49.26;48.24;51.60;;
68945;Laerm;55984;48.790;8.990;2023-07-30T04:39:02;49.18;48.23;50.46;;
68945;Laerm;55984;48.790;8.990;2023-07-30T04:41:28;49.30;48.20;51.93;;
68945;Laerm;55984;48.790;8.990;2023-07-30T04:43:53;49.21;48.15;50.97;;
68945;Laerm;55984;48.790;8.990;2023-07-30T04:46:20;49.35;48.25;51.83;;
68945;Laerm;55984;48.790;8.990;2023-07-30T04:48:46;49.26;48.27;50.31;;
68945;Laerm;55984;48.790;8.990;2023-07-30T04:51:12;49.38;48.33;51.54;;
68945;Laerm;55984;48.790;8.990;2023-07-30T04:53:38;49.20;48.11;50.24;;
68945;Laerm;55984;48.790;8.990;2023-07-30T04:56:09;49.12;48.19;50.31;;
68945;Laerm;55984;48.790;8.990;2023-07-30T04:58:35;49.16;48.20;50.24;;
68945;Laerm;55984;48.790;8.990;2023-07-30T05:01:01;49.19;48.22;50.20;;
68945;Laerm;55984;48.790;8.990;2023-07-30T05:03:29;49.15;48.07;50.14;;
68945;Laerm;55984;48.790;8.990;2023-07-30T05:05:54;49.26;48.24;50.07;;
68945;Laerm;55984;48.790;8.990;2023-07-30T05:08:20;49.38;48.36;50.32;;
68945;Laerm;55984;48.790;8.990;2023-07-30T05:10:46;49.49;48.49;50.49;;
68945;Laerm;55984;48.790;8.990;2023-07-30T05:13:12;49.77;48.39;51.76;;
68945;Laerm;55984;48.790;8.990;2023-07-30T05:15:38;50.32;48.18;53.06;;
68945;Laerm;55984;48.790;8.990;2023-07-30T05:18:04;49.14;48.12;50.18;;
68945;Laerm;55984;48.790;8.990;2023-07-30T05:20:30;49.14;48.20;50.28;;
68945;Laerm;55984;48.790;8.990;2023-07-30T05:22:56;49.19;48.12;50.09;;
68945;Laerm;55984;48.790;8.990;2023-07-30T05:25:21;49.19;48.11;57.59;;
68945;Laerm;55984;48.790;8.990;2023-07-30T05:27:48;49.08;48.19;52.46;;
68945;Laerm;55984;48.790;8.990;2023-07-30T05:30:14;49.24;48.09;54.05;;
68945;Laerm;55984;48.790;8.990;2023-07-30T05:32:39;49.09;48.03;51.52;;
68945;Laerm;55984;48.790;8.990;2023-07-30T05:35:06;49.08;48.09;53.46;;
68945;Laerm;55984;48.790;8.990;2023-07-30T05:37:32;49.21;47.90;53.06;;
68945;Laerm;55984;48.790;8.990;2023-07-30T05:40:00;56.35;48.27;72.93;;
68945;Laerm;55984;48.790;8.990;2023-07-30T05:42:26;53.26;48.94;63.66;;
68945;Laerm;55984;48.790;8.990;2023-07-30T05:44:54;52.06;48.96;60.58;;
68945;Laerm;55984;48.790;8.990;2023-07-30T05:47:20;51.62;49.12;61.00;;
68945;Laerm;55984;48.790;8.990;2023-07-30T05:49:46;50.04;48.75;54.09;;
68945;Laerm;55984;48.790;8.990;2023-07-30T05:52:12;49.63;48.42;51.65;;
68945;Laerm;55984;48.790;8.990;2023-07-30T05:54:38;50.13;48.74;53.88;;
68945;Laerm;55984;48.790;8.990;2023-07-30T05:57:04;50.78;49.09;52.86;;
68945;Laerm;55984;48.790;8.990;2023-07-30T05:59:30;53.35;49.28;67.73;;
68945;Laerm;55984;48.790;8.990;2023-07-30T06:01:56;52.79;49.78;61.73;;
68945;Laerm;55984;48.790;8.990;2023-07-30T06:04:24;53.10;49.43;63.74;;
68945;Laerm;55984;48.790;8.990;2023-07-30T06:06:50;53.89;48.78;62.67;;
68945;Laerm;55984;48.790;8.990;2023-07-30T06:09:21;54.25;48.86;70.10;;
68945;Laerm;55984;48.790;8.990;2023-07-30T06:11:47;56.00;49.59;64.01;;
68945;Laerm;55984;48.790;8.990;2023-07-30T06:14:13;54.38;49.64;64.15;;
68945;Laerm;55984;48.790;8.990;2023-07-30T06:16:38;56.17;49.47;68.30;;
68945;Laerm;55984;48.790;8.990;2023-07-30T06:19:04;61.54;49.30;69.73;;
68945;Laerm;55984;48.790;8.990;2023-07-30T06:21:30;57.28;48.74;68.94;;
68945;Laerm;55984;48.790;8.990;2023-07-30T06:23:56;53.82;48.94;61.98;;
68945;Laerm;55984;48.790;8.990;2023-07-30T06:26:22;53.89;49.08;63.57;;
68945;Laerm;55984;48.790;8.990;2023-07-30T06:28:48;54.17;49.77;63.23;;
68945;Laerm;55984;48.790;8.990;2023-07-30T06:31:14;52.11;48.63;62.15;;
68945;Laerm;55984;48.790;8.990;2023-07-30T06:33:40;52.94;49.50;60.39;;
68945;Laerm;55984;48.790;8.990;2023-07-30T06:36:06;52.91;49.44;61.67;;
68945;Laerm;55984;48.790;8.990;2023-07-30T06:38:32;53.82;48.86;66.74;;
68945;Laerm;55984;48.790;8.990;2023-07-30T06:40:58;54.28;48.99;65.78;;
68945;Laerm;55984;48.790;8.990;2023-07-30T06:43:24;52.41;48.97;62.43;;
68945;Laerm;55984;48.790;8.990;2023-07-30T06:45:53;52.58;48.91;60.55;;
68945;Laerm;55984;48.790;8.990;2023-07-30T06:48:20;51.67;48.86;59.49;;
68945;Laerm;55984;48.790;8.990;2023-07-30T06:50:46;52.53;49.06;60.88;;
68945;Laerm;55984;48.790;8.990;2023-07-30T06:53:12;53.08;48.86;58.98;;
68945;Laerm;55984;48.790;8.990;2023-07-30T06:55:37;51.94;48.75;60.31;;
68945;Laerm;55984;48.790;8.990;2023-07-30T06:58:03;51.57;48.84;58.18;;
68945;Laerm;55984;48.790;8.990;2023-07-30T07:00:29;52.81;48.74;64.07;;
68945;Laerm;55984;48.790;8.990;2023-07-30T07:02:55;52.24;48.95;61.71;;
68945;Laerm;55984;48.790;8.990;2023-07-30T07:05:21;49.85;48.66;54.77;;
68945;Laerm;55984;48.790;8.990;2023-07-30T07:07:50;50.81;48.58;58.84;;
68945;Laerm;55984;48.790;8.990;2023-07-30T07:10:16;50.93;48.79;56.09;;
68945;Laerm;55984;48.790;8.990;2023-07-30T07:12:42;50.48;48.59;56.84;;
68945;Laerm;55984;48.790;8.990;2023-07-30T07:15:08;50.61;48.77;56.70;;
68945;Laerm;55984;48.790;8.990;2023-07-30T07:17:34;50.39;48.63;53.77;;
68945;Laerm;55984;48.790;8.990;2023-07-30T07:20:00;50.37;48.40;54.31;;
68945;Laerm;55984;48.790;8.990;2023-07-30T07:22:27;51.62;48.32;64.16;;
68945;Laerm;55984;48.790;8.990;2023-07-30T07:24:53;51.01;49.20;56.31;;
68945;Laerm;55984;48.790;8.990;2023-07-30T07:27:19;50.83;49.24;54.64;;
68945;Laerm;55984;48.790;8.990;2023-07-30T07:29:44;50.52;48.81;55.47;;
68945;Laerm;55984;48.790;8.990;2023-07-30T07:32:10;50.77;49.53;52.36;;
68945;Laerm;55984;48.790;8.990;2023-07-30T07:34:37;50.49;49.03;52.04;;
68945;Laerm;55984;48.790;8.990;2023-07-30T07:37:03;50.84;49.11;57.18;;
68945;Laerm;55984;48.790;8.990;2023-07-30T07:39:29;51.58;49.31;54.95;;
68945;Laerm;55984;48.790;8.990;2023-07-30T07:41:55;51.82;48.83;55.47;;
68945;Laerm;55984;48.790;8.990;2023-07-30T07:44:21;51.37;48.77;55.92;;
68945;Laerm;55984;48.790;8.990;2023-07-30T07:46:47;50.99;48.55;56.41;;
68945;Laerm;55984;48.790;8.990;2023-07-30T07:49:13;51.11;48.80;56.60;;
68945;Laerm;55984;48.790;8.990;2023-07-30T07:51:39;52.06;48.79;57.32;;
68945;Laerm;55984;48.790;8.990;2023-07-30T07:54:05;51.16;48.93;55.97;;
68945;Laerm;55984;48.790;8.990;2023-07-30T07:56:31;51.15;49.35;54.65;;
68945;Laerm;55984;48.790;8.990;2023-07-30T07:58:58;51.18;49.55;53.52;;
68945;Laerm;55984;48.790;8.990;2023-07-30T08:01:23;50.41;48.74;54.25;;
68945;Laerm;55984;48.790;8.990;2023-07-30T08:03:50;51.11;48.93;55.86;;
68945;Laerm;55984;48.790;8.990;2023-07-30T08:06:16;52.08;49.83;59.23;;
68945;Laerm;55984;48.790;8.990;2023-07-30T08:08:42;54.00;48.18;64.82;;
68945;Laerm;55984;48.790;8.990;2023-07-30T08:11:08;50.04;48.50;58.96;;
68945;Laerm;55984;48.790;8.990;2023-07-30T08:13:35;54.12;48.40;66.26;;
68945;Laerm;55984;48.790;8.990;2023-07-30T08:16:01;50.89;48.15;61.75;;
68945;Laerm;55984;48.790;8.990;2023-07-30T08:18:28;50.31;48.24;61.72;;
68945;Laerm;55984;48.790;8.990;2023-07-30T08:20:54;49.78;48.42;60.77;;
68945;Laerm;55984;48.790;8.990;2023-07-30T08:23:20;53.16;48.41;65.66;;
68945;Laerm;55984;48.790;8.990;2023-07-30T08:25:46;49.71;48.00;57.64;;
68945;Laerm;55984;48.790;8.990;2023-07-30T08:28:11;49.39;48.28;54.31;;
68945;Laerm;55984;48.790;8.990;2023-07-30T08:30:37;49.32;48.31;51.54;;
68945;Laerm;55984;48.790;8.990;2023-07-30T08:33:03;49.42;48.39;51.19;;
68945;Laerm;55984;48.790;8.990;2023-07-30T08:35:29;49.40;48.30;57.56;;
68945;Laerm;55984;48.790;8.990;2023-07-30T08:37:55;49.27;48.38;52.41;;
68945;Laerm;55984;48.790;8.990;2023-07-30T08:40:21;49.37;48.04;52.94;;
68945;Laerm;55984;48.790;8.990;2023-07-30T08:42:51;49.38;48.09;56.79;;
68945;Laerm;55984;48.790;8.990;2023-07-30T08:45:18;51.15;48.27;58.37;;
68945;Laerm;55984;48.790;8.990;2023-07-30T08:47:44;50.09;48.25;57.94;;
68945;Laerm;55984;48.790;8.990;2023-07-30T08:50:10;49.79;48.38;55.14;;
68945;Laerm;55984;48.790;8.990;2023-07-30T08:52:37;50.13;48.62;59.57;;
68945;Laerm;55984;48.790;8.990;2023-07-30T08:55:04;50.14;48.47;51.32;;
68945;Laerm;55984;48.790;8.990;2023-07-30T08:57:30;49.44;48.38;50.81;;
68945;Laerm;55984;48.790;8.990;2023-07-30T09:00:03;49.87;48.38;52.68;;
68945;Laerm;55984;48.790;8.990;2023-07-30T09:02:37;50.87;48.34;54.73;;
68945;Laerm;55984;48.790;8.990;2023-07-30T09:05:04;51.06;48.62;53.43;;
68945;Laerm;55984;48.790;8.990;2023-07-30T09:07:30;50.63;48.83;52.33;;
68945;Laerm;55984;48.790;8.990;2023-07-30T09:09:56;49.88;48.39;56.70;;
68945;Laerm;55984;48.790;8.990;2023-07-30T09:12:28;49.30;48.31;51.09;;
68945;Laerm;55984;48.790;8.990;2023-07-30T09:14:54;49.07;48.08;50.43;;
68945;Laerm;55984;48.790;8.990;2023-07-30T09:17:20;51.27;48.43;52.33;;
68945;Laerm;55984;48.790;8.990;2023-07-30T09:19:46;51.17;49.81;52.45;;
68945;Laerm;55984;48.790;8.990;2023-07-30T09:22:12;49.07;48.15;51.82;;
68945;Laerm;55984;48.790;8.990;2023-07-30T09:24:45;49.16;48.14;50.48;;
68945;Laerm;55984;48.790;8.990;2023-07-30T09:27:11;49.23;48.19;50.43;;
68945;Laerm;55984;48.790;8.990;2023-07-30T09:29:37;49.07;48.11;50.11;;
68945;Laerm;55984;48.790;8.990;2023-07-30T09:32:03;49.10;48.11;50.40;;
68945;Laerm;55984;48.790;8.990;2023-07-30T09:34:29;49.06;48.18;50.96;;
68945;Laerm;55984;48.790;8.990;2023-07-30T09:36:55;49.17;48.26;61.45;;
68945;Laerm;55984;48.790;8.990;2023-07-30T09:39:24;50.58;48.00;69.99;;
68945;Laerm;55984;48.790;8.990;2023-07-30T09:41:52;61.56;48.50;71.35;;
68945;Laerm;55984;48.790;8.990;2023-07-30T09:44:19;54.83;48.55;59.54;;
68945;Laerm;55984;48.790;8.990;2023-07-30T09:46:48;55.34;48.55;60.49;;
68945;Laerm;55984;48.790;8.990;2023-07-30T09:49:15;54.98;48.27;60.94;;
68945;Laerm;55984;48.790;8.990;2023-07-30T09:51:41;51.85;48.23;59.35;;
68945;Laerm;55984;48.790;8.990;2023-07-30T09:54:09;51.26;48.22;59.63;;
68945;Laerm;55984;48.790;8.990;2023-07-30T09:56:39;51.09;48.21;58.11;;
68945;Laerm;55984;48.790;8.990;2023-07-30T09:59:06;50.58;48.07;57.05;;
68945;Laerm;55984;48.790;8.990;2023-07-30T10:01:52;51.46;48.29;58.64;;
68945;Laerm;55984;48.790;8.990;2023-07-30T10:04:21;51.78;48.33;58.38;;
68945;Laerm;55984;48.790;8.990;2023-07-30T10:07:00;51.75;48.09;58.22;;
68945;Laerm;55984;48.790;8.990;2023-07-30T10:09:30;51.67;47.99;60.03;;
68945;Laerm;55984;48.790;8.990;2023-07-30T10:12:00;52.06;47.97;59.10;;
68945;Laerm;55984;48.790;8.990;2023-07-30T10:14:29;53.48;48.22;59.39;;
68945;Laerm;55984;48.790;8.990;2023-07-30T10:16:59;52.10;48.15;60.20;;
68945;Laerm;55984;48.790;8.990;2023-07-30T10:19:26;53.85;48.36;61.36;;
68945;Laerm;55984;48.790;8.990;2023-07-30T10:24:37;53.24;48.19;60.12;;
68945;Laerm;55984;48.790;8.990;2023-07-30T10:27:05;52.62;48.42;61.16;;
68945;Laerm;55984;48.790;8.990;2023-07-30T10:29:34;49.31;48.11;52.66;;
68945;Laerm;55984;48.790;8.990;2023-07-30T10:32:06;49.52;47.87;61.38;;
68945;Laerm;55984;48.790;8.990;2023-07-30T10:34:47;50.18;48.25;52.83;;
68945;Laerm;55984;48.790;8.990;2023-07-30T10:37:24;49.17;48.01;51.92;;
68945;Laerm;55984;48.790;8.990;2023-07-30T10:39:50;49.25;48.12;50.22;;
68945;Laerm;55984;48.790;8.990;2023-07-30T10:42:16;48.94;47.81;50.56;;
68945;Laerm;55984;48.790;8.990;2023-07-30T10:44:44;49.02;47.99;54.35;;
68945;Laerm;55984;48.790;8.990;2023-07-30T10:47:10;48.95;47.90;49.87;;
68945;Laerm;55984;48.790;8.990;2023-07-30T10:49:37;49.05;47.99;50.50;;
68945;Laerm;55984;48.790;8.990;2023-07-30T10:52:03;49.97;48.28;69.32;;
68945;Laerm;55984;48.790;8.990;2023-07-30T10:54:33;49.43;48.37;52.98;;
68945;Laerm;55984;48.790;8.990;2023-07-30T10:57:01;49.62;48.21;52.19;;
68945;Laerm;55984;48.790;8.990;2023-07-30T10:59:34;50.12;48.38;56.36;;
68945;Laerm;55984;48.790;8.990;2023-07-30T11:02:01;59.04;48.50;71.68;;
68945;Laerm;55984;48.790;8.990;2023-07-30T11:04:27;49.95;48.37;62.58;;
68945;Laerm;55984;48.790;8.990;2023-07-30T11:06:53;51.10;48.14;64.50;;
68945;Laerm;55984;48.790;8.990;2023-07-30T11:11:49;51.97;48.23;57.83;;
68945;Laerm;55984;48.790;8.990;2023-07-30T11:14:20;51.61;48.08;58.27;;
68945;Laerm;55984;48.790;8.990;2023-07-30T11:16:57;51.78;47.92;57.92;;
68945;Laerm;55984;48.790;8.990;2023-07-30T11:19:23;52.85;48.19;59.48;;
68945;Laerm;55984;48.790;8.990;2023-07-30T11:21:50;53.23;48.23;60.28;;
68945;Laerm;55984;48.790;8.990;2023-07-30T11:24:17;51.99;48.40;59.16;;
68945;Laerm;55984;48.790;8.990;2023-07-30T11:26:43;51.95;48.30;60.10;;
68945;Laerm;55984;48.790;8.990;2023-07-30T11:29:16;53.14;48.47;59.93;;
68945;Laerm;55984;48.790;8.990;2023-07-30T11:31:43;52.89;48.35;58.84;;
68945;Laerm;55984;48.790;8.990;2023-07-30T11:34:10;53.33;48.41;60.25;;
68945;Laerm;55984;48.790;8.990;2023-07-30T11:36:36;53.93;48.78;60.72;;
68945;Laerm;55984;48.790;8.990;2023-07-30T11:39:03;52.93;49.14;59.00;;
68945;Laerm;55984;48.790;8.990;2023-07-30T11:41:32;52.48;48.89;58.37;;
68945;Laerm;55984;48.790;8.990;2023-07-30T11:43:58;53.22;49.37;59.36;;
68945;Laerm;55984;48.790;8.990;2023-07-30T11:46:24;53.15;48.95;59.78;;
68945;Laerm;55984;48.790;8.990;2023-07-30T11:48:52;53.41;48.61;59.77;;
68945;Laerm;55984;48.790;8.990;2023-07-30T11:56:22;53.28;48.67;59.34;;
68945;Laerm;55984;48.790;8.990;2023-07-30T11:58:50;53.72;48.64;61.13;;
68945;Laerm;55984;48.790;8.990;2023-07-30T12:01:16;54.58;48.71;61.10;;
68945;Laerm;55984;48.790;8.990;2023-07-30T12:03:42;57.19;48.78;62.60;;
68945;Laerm;55984;48.790;8.990;2023-07-30T12:06:10;60.98;48.96;77.71;;
68945;Laerm;55984;48.790;8.990;2023-07-30T12:08:37;70.94;53.39;85.04;;
68945;Laerm;55984;48.790;8.990;2023-07-30T12:11:04;68.93;53.19;80.71;;
68945;Laerm;55984;48.790;8.990;2023-07-30T12:13:30;69.51;54.48;80.46;;
68945;Laerm;55984;48.790;8.990;2023-07-30T12:15:56;68.78;54.91;81.52;;
68945;Laerm;55984;48.790;8.990;2023-07-30T12:18:23;68.98;56.78;82.83;;
68945;Laerm;55984;48.790;8.990;2023-07-30T12:20:50;64.63;54.50;76.43;;
68945;Laerm;55984;48.790;8.990;2023-07-30T12:23:17;66.57;54.89;76.51;;
68945;Laerm;55984;48.790;8.990;2023-07-30T12:25:43;64.26;54.48;72.20;;
68945;Laerm;55984;48.790;8.990;2023-07-30T12:28:09;61.08;52.81;73.28;;
68945;Laerm;55984;48.790;8.990;2023-07-30T12:30:35;64.74;53.27;74.71;;
68945;Laerm;55984;48.790;8.990;2023-07-30T12:33:03;66.61;55.18;78.22;;
68945;Laerm;55984;48.790;8.990;2023-07-30T12:35:30;59.94;53.92;70.47;;
68945;Laerm;55984;48.790;8.990;2023-07-30T12:37:56;64.54;54.76;72.86;;
68945;Laerm;55984;48.790;8.990;2023-07-30T12:40:21;63.91;52.26;77.49;;
68945;Laerm;55984;48.790;8.990;2023-07-30T12:42:47;64.78;52.01;79.93;;
68945;Laerm;55984;48.790;8.990;2023-07-30T12:45:21;69.60;54.14;79.64;;
68945;Laerm;55984;48.790;8.990;2023-07-30T12:47:47;67.25;55.65;79.22;;
68945;Laerm;55984;48.790;8.990;2023-07-30T12:50:13;67.12;53.32;74.31;;
68945;Laerm;55984;48.790;8.990;2023-07-30T12:52:39;64.80;52.14;77.06;;
68945;Laerm;55984;48.790;8.990;2023-07-30T12:55:05;65.95;51.46;75.57;;
68945;Laerm;55984;48.790;8.990;2023-07-30T12:57:31;69.61;53.61;81.01;;
68945;Laerm;55984;48.790;8.990;2023-07-30T12:59:57;63.36;56.02;72.71;;
68945;Laerm;55984;48.790;8.990;2023-07-30T13:02:23;62.69;52.79;72.83;;
68945;Laerm;55984;48.790;8.990;2023-07-30T13:04:49;66.45;59.64;78.16;;
68945;Laerm;55984;48.790;8.990;2023-07-30T13:07:15;67.95;52.66;77.96;;
68945;Laerm;55984;48.790;8.990;2023-07-30T13:09:41;72.37;58.88;85.33;;
68945;Laerm;55984;48.790;8.990;2023-07-30T13:12:07;65.69;54.43;77.29;;
68945;Laerm;55984;48.790;8.990;2023-07-30T13:14:33;63.20;53.47;73.75;;
68945;Laerm;55984;48.790;8.990;2023-07-30T13:16:59;63.62;56.08;76.55;;
68945;Laerm;55984;48.790;8.990;2023-07-30T13:19:24;60.58;52.16;71.05;;
68945;Laerm;55984;48.790;8.990;2023-07-30T13:21:50;66.31;53.43;81.32;;
68945;Laerm;55984;48.790;8.990;2023-07-30T13:24:16;63.32;51.64;79.25;;
68945;Laerm;55984;48.790;8.990;2023-07-30T13:26:43;66.18;51.91;76.92;;
68945;Laerm;55984;48.790;8.990;2023-07-30T13:29:09;65.02;56.55;76.19;;
68945;Laerm;55984;48.790;8.990;2023-07-30T13:31:35;64.69;53.82;83.64;;
68945;Laerm;55984;48.790;8.990;2023-07-30T13:34:01;70.09;54.17;78.75;;
68945;Laerm;55984;48.790;8.990;2023-07-30T13:36:27;71.31;55.15;80.54;;
68945;Laerm;55984;48.790;8.990;2023-07-30T13:38:52;72.03;54.84;85.92;;
68945;Laerm;55984;48.790;8.990;2023-07-30T13:41:18;61.12;54.10;73.54;;
68945;Laerm;55984;48.790;8.990;2023-07-30T13:43:44;64.89;52.91;77.71;;
68945;Laerm;55984;48.790;8.990;2023-07-30T13:46:10;59.42;51.09;72.53;;
68945;Laerm;55984;48.790;8.990;2023-07-30T13:48:36;59.23;53.65;65.21;;
68945;Laerm;55984;48.790;8.990;2023-07-30T13:51:02;62.13;52.97;68.00;;